Time;durP1;ratioP1;P1;durP2;ratioP2;P2;SDS_P1;SDS_P2;PMS_P1;PMS_P2;Temp;Humidity;BMP_temperature;BMP_pressure;BME280_temperature;BME280_humidity;BME280_pressure;Samples;Min_cycle;Max_cycle;Signal;HPM_P1;HPM_P2
2021/06/01 00:01:50;;;;;;;0.85;0.85;;;;;;;11.91;69.31;100010.03;4416762;32;32652;-80
2021/06/01 00:04:19;;;;;;;0.62;0.45;;;;;;;12.37;67.57;100005.41;4430617;32;34426;-80
2021/06/01 00:06:46;;;;;;;;;;;;;;;11.99;68.72;100007.47;4431639;32;34557;-80
2021/06/01 00:09:18;;;;;;;;;;;;;;;12.33;67.39;100006.72;4432653;32;32663;-80
2021/06/01 00:11:50;;;;;;;0.30;0.28;;;;;;;12.39;66.50;100003.41;4419160;32;33913;-79
2021/06/01 00:14:18;;;;;;;2.00;1.02;;;;;;;12.31;67.50;100003.34;4416851;32;36021;-79
2021/06/01 00:16:48;;;;;;;1.20;1.12;;;;;;;11.98;68.72;99995.09;4406809;32;34581;-80
2021/06/01 00:19:17;;;;;;;0.40;0.40;;;;;;;12.05;68.20;100009.53;4430115;32;32808;-80
2021/06/01 00:21:46;;;;;;;0.95;0.95;;;;;;;11.89;68.66;100003.97;4445500;32;34222;-79
2021/06/01 00:24:14;;;;;;;0.52;0.43;;;;;;;11.92;68.65;100001.03;4418030;32;35740;-79
2021/06/01 00:26:44;;;;;;;0.50;0.35;;;;;;;12.00;67.74;100006.47;4419742;32;34815;-80
2021/06/01 00:29:12;;;;;;;2.08;1.60;;;;;;;11.89;67.64;100006.66;4430290;32;33351;-79
2021/06/01 00:31:41;;;;;;;;;;;;;;;11.54;69.09;99996.66;4419934;32;33569;-78
2021/06/01 00:34:10;;;;;;;0.35;0.35;;;;;;;11.52;69.25;99998.63;4431715;32;33951;-79
2021/06/01 00:36:38;;;;;;;1.02;0.88;;;;;;;11.41;69.72;100005.97;4403873;32;34129;-79
2021/06/01 00:39:08;;;;;;;1.27;0.80;;;;;;;11.46;69.23;100006.37;4419582;32;33052;-78
2021/06/01 00:41:36;;;;;;;0.32;0.32;;;;;;;11.56;68.51;100007.19;4430860;32;35708;-79
2021/06/01 00:44:04;;;;;;;;;;;;;;;11.41;69.03;100008.62;4418779;32;35531;-79
2021/06/01 00:46:33;;;;;;;;;;;;;;;11.28;69.57;100005.44;4445442;32;35188;-79
2021/06/01 00:49:02;;;;;;;1.17;0.80;;;;;;;11.27;69.53;100005.56;4431427;32;33428;-79
2021/06/01 00:51:31;;;;;;;0.50;0.50;;;;;;;10.94;70.37;100006.06;4418660;32;33509;-79
2021/06/01 00:54:01;;;;;;;0.55;0.55;;;;;;;11.25;69.25;100005.75;4403276;32;35916;-79
2021/06/01 00:56:33;;;;;;;0.95;0.80;;;;;;;11.12;70.36;100012.34;4444330;32;33917;-79
2021/06/01 00:59:01;;;;;;;0.40;0.32;;;;;;;11.44;69.11;100011.84;4431942;32;33567;-79
2021/06/01 01:01:30;;;;;;;0.85;0.85;;;;;;;11.44;69.22;100009.19;4429676;32;33687;-79
2021/06/01 01:03:58;;;;;;;1.45;0.62;;;;;;;10.88;71.75;100012.78;4432267;32;35668;-79
2021/06/01 01:06:52;;;;;;;1.08;0.90;;;;;;;11.18;69.63;100007.28;4404626;32;34967;-79
2021/06/01 01:09:22;;;;;;;0.50;0.47;;;;;;;10.99;70.62;100009.13;4432328;32;33141;-79
2021/06/01 01:12:17;;;;;;;0.62;0.60;;;;;;;11.05;70.00;100008.56;4429661;32;33597;-79
2021/06/01 01:14:52;;;;;;;0.47;0.47;;;;;;;10.90;70.17;100010.81;4417632;32;34821;-78
2021/06/01 01:17:23;;;;;;;0.68;0.52;;;;;;;10.93;69.61;100007.88;4417989;32;34632;-79
2021/06/01 01:20:00;;;;;;;1.27;1.00;;;;;;;10.82;69.73;100002.69;4404733;32;35853;-79
2021/06/01 01:22:31;;;;;;;2.30;0.73;;;;;;;10.66;70.43;100005.06;4446749;32;33035;-79
2021/06/01 01:25:02;;;;;;;0.35;0.35;;;;;;;10.43;71.71;100009.00;4431403;32;34055;-79
2021/06/01 01:28:03;;;;;;;0.57;0.52;;;;;;;10.56;71.39;100003.41;4444223;32;33808;-79
2021/06/01 01:30:47;;;;;;;2.62;0.37;;;;;;;10.72;70.38;99999.19;4417508;32;32048;-79
2021/06/01 01:33:26;;;;;;;0.50;0.45;;;;;;;10.63;70.85;99997.38;4432095;32;33209;-79
2021/06/01 01:36:00;;;;;;;0.60;0.50;;;;;;;10.81;69.94;100010.81;4432013;32;35502;-79
2021/06/01 01:38:29;;;;;;;0.57;0.57;;;;;;;10.72;70.09;100003.66;4415139;32;35202;-79
2021/06/01 01:41:05;;;;;;;1.05;0.50;;;;;;;10.66;70.89;99997.09;4418716;32;34067;-79
2021/06/01 01:43:34;;;;;;;1.85;1.20;;;;;;;10.54;71.24;99995.56;4418575;32;33690;-79
2021/06/01 01:46:11;;;;;;;0.75;0.75;;;;;;;10.65;70.96;100002.56;4418959;32;34512;-79
2021/06/01 01:51:36;;;;;;;0.93;0.62;;;;;;;10.61;70.74;99991.38;4428377;32;32511;-78
2021/06/01 01:54:15;;;;;;;;;;;;;;;10.80;69.12;99993.16;4417677;32;33081;-79
2021/06/01 01:56:46;;;;;;;0.85;0.50;;;;;;;10.82;69.19;100001.84;4431225;32;34978;-79
2021/06/01 01:59:16;;;;;;;0.60;0.57;;;;;;;10.55;70.28;99994.56;4430350;32;34127;-80
2021/06/01 02:01:49;;;;;;;0.82;0.60;;;;;;;10.38;70.86;99995.25;4417931;32;35335;-79
2021/06/01 02:04:27;;;;;;;2.12;1.20;;;;;;;10.35;71.28;99997.34;4416401;32;33670;-79
2021/06/01 02:06:56;;;;;;;0.40;0.40;;;;;;;10.53;70.59;99990.38;4428698;32;35495;-79
2021/06/01 02:09:25;;;;;;;0.50;0.43;;;;;;;10.70;68.81;99987.88;4418401;32;33043;-79
2021/06/01 02:11:55;;;;;;;0.43;0.43;;;;;;;10.48;70.00;99992.63;4430465;32;33797;-79
2021/06/01 02:14:23;;;;;;;0.77;0.50;;;;;;;10.52;69.99;99994.84;4403456;32;33912;-80
2021/06/01 02:16:52;;;;;;;0.40;0.40;;;;;;;10.48;69.45;99997.94;4430219;32;35013;-79
2021/06/01 02:19:21;;;;;;;0.52;0.47;;;;;;;10.36;70.48;99997.22;4430300;32;33227;-80
2021/06/01 02:24:56;;;;;;;1.17;0.90;;;;;;;10.00;71.96;99999.63;4430359;32;35460;-79
2021/06/01 02:27:55;;;;;;;0.45;0.45;;;;;;;9.99;72.21;100000.59;4430018;32;34856;-81
2021/06/01 02:30:30;;;;;;;0.57;0.52;;;;;;;10.18;71.22;100006.00;4441287;32;34308;-80
2021/06/01 02:33:00;;;;;;;0.70;0.40;;;;;;;10.39;70.40;99996.94;4417492;32;34652;-80
2021/06/01 02:35:36;;;;;;;0.37;0.20;;;;;;;10.32;70.91;100000.28;4417653;32;33718;-79
2021/06/01 02:38:08;;;;;;;1.77;1.23;;;;;;;10.19;71.17;99995.22;4427773;32;36033;-80
2021/06/01 02:40:39;;;;;;;0.40;0.40;;;;;;;10.16;71.37;100002.63;4418005;32;35004;-80
2021/06/01 02:43:09;;;;;;;1.08;0.50;;;;;;;10.15;71.21;100000.94;4430124;32;35891;-80
2021/06/01 02:45:41;;;;;;;0.40;0.40;;;;;;;10.38;70.08;99992.59;4418540;32;34137;-80
2021/06/01 02:48:13;;;;;;;0.32;0.32;;;;;;;10.34;70.95;99991.19;4418072;32;35854;-81
2021/06/01 02:50:42;;;;;;;0.65;0.60;;;;;;;10.24;71.71;99992.16;4430597;32;34677;-81
2021/06/01 02:53:32;;;;;;;1.17;0.40;;;;;;;10.21;71.58;99987.94;4433036;32;32369;-82
2021/06/01 02:56:00;;;;;;;1.15;0.60;;;;;;;10.19;71.92;99989.91;4405689;32;34511;-80
2021/06/01 02:58:30;;;;;;;0.45;0.45;;;;;;;10.16;72.99;99987.53;4418718;32;34761;-81
2021/06/01 03:01:03;;;;;;;1.08;0.77;;;;;;;10.51;71.01;99985.19;4418104;32;34321;-80
2021/06/01 03:03:32;;;;;;;0.75;0.45;;;;;;;10.28;71.21;99982.94;4419286;32;33661;-81
2021/06/01 03:06:00;;;;;;;8.27;0.50;;;;;;;10.40;70.61;99984.47;4430652;32;34240;-81
2021/06/01 03:08:28;;;;;;;0.32;0.32;;;;;;;10.31;70.89;99987.97;4417893;32;34745;-81
2021/06/01 03:11:03;;;;;;;0.65;0.65;;;;;;;10.51;70.25;99990.53;4418163;32;33086;-80
2021/06/01 03:13:32;;;;;;;0.62;0.62;;;;;;;10.90;68.56;99992.19;4429170;32;34020;-80
2021/06/01 03:16:00;;;;;;;6.95;1.12;;;;;;;11.12;67.78;99989.22;4419585;32;33852;-81
2021/06/01 03:18:28;;;;;;;0.73;0.73;;;;;;;11.00;68.37;99990.34;4419585;32;35982;-80
2021/06/01 03:20:56;;;;;;;0.50;0.50;;;;;;;11.23;67.28;99994.37;4419419;32;35493;-80
2021/06/01 03:23:25;;;;;;;1.55;1.15;;;;;;;11.00;67.89;99992.16;4419513;32;34505;-82
2021/06/01 03:25:53;;;;;;;0.55;0.20;;;;;;;10.59;69.33;99997.78;4404249;32;34591;-80
2021/06/01 03:28:20;;;;;;;;;;;;;;;10.62;69.67;99997.50;4432394;32;35693;-80
2021/06/01 03:30:51;;;;;;;1.33;0.50;;;;;;;10.66;69.63;100002.41;4420374;32;34026;-80
2021/06/01 03:33:19;;;;;;;2.08;0.57;;;;;;;10.51;70.82;99995.00;4417393;32;35210;-81
2021/06/01 03:35:47;;;;;;;0.90;0.62;;;;;;;11.04;69.00;99998.91;4431758;32;33000;-81
2021/06/01 03:38:16;;;;;;;0.93;0.60;;;;;;;10.55;70.34;99999.03;4431234;32;35788;-81
2021/06/01 03:40:44;;;;;;;0.52;0.50;;;;;;;10.62;70.13;100000.16;4432234;32;34372;-81
2021/06/01 03:43:14;;;;;;;1.48;1.37;;;;;;;10.60;70.70;99991.50;4446561;32;33371;-80
2021/06/01 03:45:42;;;;;;;1.27;1.10;;;;;;;10.66;71.06;99989.09;4417904;32;34142;-80
2021/06/01 03:48:12;;;;;;;1.25;0.80;;;;;;;10.95;69.58;100000.56;4445208;32;35777;-80
2021/06/01 03:50:40;;;;;;;0.57;0.57;;;;;;;11.01;69.40;100001.81;4419363;32;34121;-81
2021/06/01 03:53:09;;;;;;;0.75;0.75;;;;;;;10.67;70.85;100008.59;4417756;32;32939;-80
2021/06/01 03:55:38;;;;;;;2.37;0.70;;;;;;;10.75;70.58;100004.22;4418924;32;33769;-80
2021/06/01 03:58:07;;;;;;;0.77;0.77;;;;;;;10.62;71.51;100000.16;4414963;32;35452;-80
2021/06/01 04:00:36;;;;;;;0.60;0.60;;;;;;;10.89;71.13;100001.16;4418230;32;33516;-81
2021/06/01 04:03:05;;;;;;;2.20;1.50;;;;;;;10.77;71.91;99996.13;4416513;32;32854;-80
2021/06/01 04:05:33;;;;;;;0.52;0.52;;;;;;;10.93;71.56;99999.88;4417906;32;35301;-80
2021/06/01 04:08:01;;;;;;;0.65;0.65;;;;;;;11.12;71.12;100007.03;4429137;32;35606;-81
2021/06/01 04:10:29;;;;;;;0.52;0.52;;;;;;;11.15;71.22;100004.88;4431465;32;34383;-79
2021/06/01 04:12:57;;;;;;;0.57;0.57;;;;;;;11.48;70.43;100007.06;4430934;32;33410;-81
2021/06/01 04:15:25;;;;;;;1.62;1.40;;;;;;;11.49;70.60;100006.94;4419660;32;33181;-80
2021/06/01 04:17:54;;;;;;;1.90;0.95;;;;;;;11.52;70.97;99997.78;4429300;32;35064;-79
2021/06/01 04:20:22;;;;;;;1.27;1.12;;;;;;;11.51;71.14;100002.28;4445883;32;34241;-80
2021/06/01 04:22:50;;;;;;;1.83;0.70;;;;;;;11.88;69.93;100002.31;4404530;32;35251;-80
2021/06/01 04:25:20;;;;;;;2.08;1.98;;;;;;;12.06;69.59;99997.88;4418112;32;34820;-80
2021/06/01 04:27:48;;;;;;;0.65;0.50;;;;;;;12.23;69.24;99992.59;4430092;32;35079;-80
2021/06/01 04:30:16;;;;;;;2.55;1.20;;;;;;;12.45;68.38;99996.62;4428493;32;34790;-81
2021/06/01 04:32:45;;;;;;;1.30;0.80;;;;;;;12.38;68.78;99998.25;4430712;32;34567;-82
2021/06/01 04:35:15;;;;;;;1.37;1.20;;;;;;;12.53;68.46;99994.91;4419222;32;33822;-80
2021/06/01 04:37:43;;;;;;;6.97;1.17;;;;;;;12.80;67.74;99996.66;4418907;32;36541;-80
2021/06/01 04:40:14;;;;;;;0.80;0.40;;;;;;;12.73;67.98;99998.25;4445851;32;36274;-80
2021/06/01 04:42:44;;;;;;;1.20;1.10;;;;;;;12.92;67.59;99993.59;4431759;32;33779;-81
2021/06/01 04:45:14;;;;;;;1.00;0.77;;;;;;;12.93;67.72;99995.25;4445321;32;34148;-81
2021/06/01 04:47:43;;;;;;;1.60;1.40;;;;;;;12.91;68.11;99999.94;4430299;32;34566;-81
2021/06/01 04:50:12;;;;;;;0.95;0.75;;;;;;;13.00;68.01;100003.53;4443121;32;34293;-80
2021/06/01 04:52:41;;;;;;;1.45;1.00;;;;;;;13.00;68.78;100000.84;4405754;32;32091;-81
2021/06/01 04:55:11;;;;;;;0.50;0.50;;;;;;;12.89;70.56;100003.75;4443152;32;32712;-82
2021/06/01 04:57:40;;;;;;;1.30;1.20;;;;;;;13.26;69.40;99996.38;4431356;32;35203;-81
2021/06/01 05:00:10;;;;;;;1.92;1.58;;;;;;;13.39;69.60;99994.97;4404884;32;33551;-82
2021/06/01 05:02:38;;;;;;;0.75;0.68;;;;;;;13.64;69.08;99995.97;4418737;32;33202;-81
2021/06/01 05:05:07;;;;;;;0.88;0.60;;;;;;;13.88;68.48;100006.78;4417938;32;34799;-81
2021/06/01 05:07:37;;;;;;;1.83;0.98;;;;;;;14.00;68.05;99997.47;4442397;32;34192;-81
2021/06/01 05:10:06;;;;;;;0.50;0.50;;;;;;;14.17;67.57;100001.91;4414472;32;34616;-83
2021/06/01 05:12:34;;;;;;;0.68;0.68;;;;;;;14.25;67.06;99994.75;4430116;32;33539;-80
2021/06/01 05:15:07;;;;;;;1.20;1.05;;;;;;;14.44;66.25;99997.16;4429377;32;33603;-81
2021/06/01 05:17:35;;;;;;;3.37;0.82;;;;;;;14.64;64.72;99996.69;4416774;32;34726;-81
2021/06/01 05:20:04;;;;;;;0.85;0.85;;;;;;;14.73;64.38;100003.75;4430362;32;35082;-81
2021/06/01 05:22:33;;;;;;;5.25;1.25;;;;;;;14.76;62.14;99997.22;4429816;32;31613;-80
2021/06/01 05:25:03;;;;;;;1.85;0.93;;;;;;;14.74;61.80;100005.41;4404929;32;34779;-81
2021/06/01 05:27:32;;;;;;;0.73;0.73;;;;;;;14.84;60.63;100003.41;4429545;32;33908;-81
2021/06/01 05:30:04;;;;;;;0.40;0.30;;;;;;;15.14;60.26;100007.28;4444003;32;33841;-82
2021/06/01 05:35:03;;;;;;;0.73;0.50;;;;;;;15.42;60.00;100016.69;4415784;32;32873;-81
2021/06/01 05:37:35;;;;;;;0.37;0.35;;;;;;;15.40;60.02;100016.00;4443334;32;35697;-80
2021/06/01 05:40:04;;;;;;;0.82;0.82;;;;;;;15.60;60.13;100017.31;4417159;32;33270;-85
2021/06/01 05:42:32;;;;;;;0.60;0.40;;;;;;;15.62;61.72;100018.84;4416242;32;32684;-83
2021/06/01 05:45:00;;;;;;;0.95;0.65;;;;;;;15.82;61.37;100012.06;4429456;32;34496;-82
2021/06/01 05:47:28;;;;;;;5.90;1.27;;;;;;;15.81;61.72;100017.59;4427553;32;36307;-89
2021/06/01 05:49:56;;;;;;;1.12;0.57;;;;;;;15.95;61.05;100015.03;4430243;32;32509;-91
2021/06/01 05:52:24;;;;;;;0.55;0.55;;;;;;;16.22;60.97;100019.97;4417091;32;33397;-87
2021/06/01 05:54:52;;;;;;;1.37;0.52;;;;;;;16.46;58.98;100019.03;4428150;32;34045;-86
2021/06/01 05:57:24;;;;;;;3.33;0.70;;;;;;;16.50;58.67;100020.37;4429161;32;35335;-89
2021/06/01 06:00:10;;;;;;;1.23;1.08;;;;;;;16.44;59.11;100021.88;4443456;32;35268;-88
2021/06/01 06:02:38;;;;;;;0.30;0.30;;;;;;;16.61;59.01;100010.03;4417208;32;33984;-90
2021/06/01 06:05:09;;;;;;;0.82;0.82;;;;;;;16.62;59.15;100017.09;4429815;32;33869;-88
2021/06/01 06:07:40;;;;;;;0.70;0.70;;;;;;;16.50;59.03;100015.81;4402029;32;37491;-88
2021/06/01 06:10:09;;;;;;;1.23;1.00;;;;;;;16.73;58.24;100027.44;4417529;32;34530;-87
2021/06/01 06:12:39;;;;;;;0.70;0.70;;;;;;;16.74;58.02;100025.59;4430202;32;33694;-88
2021/06/01 06:15:10;;;;;;;0.40;0.40;;;;;;;16.31;58.62;100028.81;4417849;32;33289;-89
2021/06/01 06:17:57;;;;;;;1.37;0.50;;;;;;;16.24;55.35;100028.66;4429054;32;35169;-89
2021/06/01 06:20:25;;;;;;;1.12;0.47;;;;;;;16.65;55.29;100024.81;4429622;32;34083;-88
2021/06/01 06:22:56;;;;;;;0.85;0.47;;;;;;;16.81;55.91;100031.94;4429280;32;33705;-88
2021/06/01 06:25:26;;;;;;;0.30;0.30;;;;;;;16.88;56.77;100028.34;4428491;32;33865;-90
2021/06/01 06:27:55;;;;;;;0.90;0.90;;;;;;;17.06;56.68;100023.50;4440357;32;35375;-91
2021/06/01 06:30:31;;;;;;;0.85;0.50;;;;;;;17.27;56.02;100030.91;4419162;32;33598;-89
2021/06/01 06:32:58;;;;;;;0.68;0.50;;;;;;;17.28;54.48;100030.72;4429785;32;33151;-88
2021/06/01 06:35:27;;;;;;;0.62;0.62;;;;;;;16.81;55.04;100037.31;4403817;32;32844;-89
2021/06/01 06:37:58;;;;;;;1.23;0.50;;;;;;;16.67;53.71;100027.31;4416992;32;33478;-91
2021/06/01 06:40:26;;;;;;;1.12;0.80;;;;;;;17.08;55.45;100029.53;4442235;32;34729;-91
2021/06/01 06:42:54;;;;;;;0.85;0.35;;;;;;;17.08;54.28;100021.47;4429100;32;32544;-88
2021/06/01 06:45:47;;;;;;;0.40;0.40;;;;;;;16.78;51.20;100034.97;4422098;32;35348;-88
2021/06/01 06:48:15;;;;;;;0.70;0.50;;;;;;;17.05;54.83;100032.59;4428356;32;34344;-86
2021/06/01 06:50:51;;;;;;;0.80;0.80;;;;;;;17.16;52.79;100024.09;4386884;32;33916;-88
2021/06/01 06:53:19;;;;;;;;;;;;;;;17.20;52.37;100027.25;4417046;32;33530;-90
2021/06/01 06:55:46;;;;;;;;;;;;;;;16.35;51.47;100039.03;4418594;32;34429;-89
2021/06/01 06:58:17;;;;;;;0.93;0.30;;;;;;;16.33;50.62;100024.13;4429851;32;35527;-85
2021/06/01 07:00:45;;;;;;;0.20;0.20;;;;;;;16.81;51.40;100023.87;4445307;32;34530;-92
2021/06/01 07:03:16;;;;;;;0.80;0.70;;;;;;;17.01;51.92;100020.53;4392002;32;33596;-88
2021/06/01 07:05:45;;;;;;;0.98;0.62;;;;;;;16.64;51.62;100023.16;4419050;32;34268;-89
2021/06/01 07:08:13;;;;;;;0.62;0.62;;;;;;;16.78;52.95;100017.00;4418824;32;34273;-88
2021/06/01 07:10:42;;;;;;;0.47;0.30;;;;;;;16.63;50.00;100026.00;4430519;32;34395;-86
2021/06/01 07:13:12;;;;;;;;;;;;;;;16.35;50.34;100020.22;4419213;32;33511;-88
2021/06/01 07:15:42;;;;;;;1.83;0.45;;;;;;;16.54;50.09;100019.81;4418789;32;33355;-89
2021/06/01 07:18:11;;;;;;;1.00;0.90;;;;;;;17.04;50.80;100019.31;4417601;32;36040;-89
2021/06/01 07:20:39;;;;;;;1.10;0.70;;;;;;;17.38;50.21;100011.69;4405283;32;34556;-90
2021/06/01 07:23:06;;;;;;;0.43;0.43;;;;;;;17.56;50.38;100013.00;4418222;32;32085;-90
2021/06/01 07:25:36;;;;;;;1.75;1.05;;;;;;;17.68;49.59;100001.59;4430881;32;34602;-90
2021/06/01 07:28:12;;;;;;;0.82;0.60;;;;;;;17.64;51.36;100004.84;4431096;32;35652;-90
2021/06/01 07:30:41;;;;;;;0.40;0.30;;;;;;;17.55;50.71;100016.72;4419264;32;34274;-91
2021/06/01 07:33:13;;;;;;;0.37;0.37;;;;;;;17.35;49.56;100012.84;4431646;32;32711;-88
2021/06/01 07:35:44;;;;;;;0.37;0.37;;;;;;;17.40;46.94;100005.09;4430422;32;33819;-88
2021/06/01 07:38:13;;;;;;;;;;;;;;;17.69;48.55;100011.34;4429712;32;36478;-88
2021/06/01 07:40:40;;;;;;;0.40;0.40;;;;;;;17.93;48.82;100002.16;4417977;32;34169;-91
2021/06/01 07:43:10;;;;;;;1.27;0.88;;;;;;;18.25;49.46;100001.78;4430437;32;33068;-92
2021/06/01 07:45:41;;;;;;;1.40;1.33;;;;;;;18.38;47.24;100002.81;4431193;32;34511;-88
2021/06/01 07:48:09;;;;;;;0.10;0.10;;;;;;;17.40;45.46;100005.09;4430609;32;33916;-88
2021/06/01 07:50:37;;;;;;;1.48;1.30;;;;;;;17.58;44.35;100002.91;4417524;32;33701;-88
2021/06/01 07:53:05;;;;;;;0.45;0.40;;;;;;;17.81;44.96;100001.81;4418513;32;33335;-87
2021/06/01 07:55:34;;;;;;;4.18;0.50;;;;;;;18.32;44.36;99998.16;4443910;32;33469;-90
2021/06/01 07:58:02;;;;;;;8.32;0.80;;;;;;;18.56;45.36;100002.41;4442894;32;33190;-87
2021/06/01 08:00:30;;;;;;;1.08;0.98;;;;;;;19.09;44.13;100000.03;4429741;32;35084;-88
2021/06/01 08:02:59;;;;;;;0.60;0.60;;;;;;;19.08;45.45;100009.16;4403592;32;34456;-86
2021/06/01 08:05:28;;;;;;;0.32;0.32;;;;;;;18.97;46.12;99995.38;4416831;32;32851;-89
2021/06/01 08:07:57;;;;;;;1.02;1.02;;;;;;;18.81;41.67;100001.03;4417303;32;34986;-89
2021/06/01 08:10:27;;;;;;;1.12;0.80;;;;;;;19.55;45.25;100009.41;4441030;32;34237;-87
2021/06/01 08:13:01;;;;;;;0.30;0.30;;;;;;;19.74;41.16;100007.88;4431077;32;34992;-86
2021/06/01 08:15:30;;;;;;;0.60;0.60;;;;;;;20.07;42.70;100011.62;4415969;32;34427;-87
2021/06/01 08:18:03;;;;;;;0.95;0.65;;;;;;;19.82;38.52;100007.72;4416634;32;35637;-83
2021/06/01 08:20:41;;;;;;;1.23;0.40;;;;;;;19.78;37.25;100001.88;4417955;32;36469;-89
2021/06/01 08:23:18;;;;;;;0.68;0.68;;;;;;;20.00;37.38;100006.16;4431095;32;33421;-86
2021/06/01 08:26:07;;;;;;;0.25;0.25;;;;;;;20.34;39.92;100006.19;4422327;32;34337;-86
2021/06/01 08:28:35;;;;;;;0.88;0.50;;;;;;;20.52;37.50;99992.94;4429439;32;34244;-85
2021/06/01 08:31:03;;;;;;;0.35;0.35;;;;;;;19.76;39.27;99997.72;4404121;32;33624;-82
2021/06/01 08:33:32;;;;;;;2.47;0.93;;;;;;;19.50;42.22;100008.31;4417413;32;34204;-85
2021/06/01 08:36:00;;;;;;;0.80;0.22;;;;;;;20.08;41.91;100010.63;4417640;32;34472;-83
2021/06/01 08:38:28;;;;;;;0.28;0.28;;;;;;;20.27;40.99;100008.00;4417578;32;34503;-83
2021/06/01 08:40:58;;;;;;;2.00;0.62;;;;;;;20.14;36.98;100001.69;4417590;32;33153;-82
2021/06/01 08:43:27;;;;;;;0.77;0.60;;;;;;;20.07;37.31;99998.97;4444988;32;33016;-83
2021/06/01 08:45:56;;;;;;;0.30;0.30;;;;;;;19.62;34.71;100012.97;4417591;32;35145;-82
2021/06/01 08:48:26;;;;;;;0.35;0.35;;;;;;;18.85;34.35;100003.16;4405498;32;34890;-81
2021/06/01 08:50:55;;;;;;;0.22;0.20;;;;;;;19.14;35.22;99999.47;4431183;32;34114;-82
2021/06/01 08:53:23;;;;;;;0.50;0.40;;;;;;;18.91;35.05;100007.78;4417793;32;33176;-83
2021/06/01 08:55:53;;;;;;;0.88;0.80;;;;;;;18.89;35.90;100004.41;4429641;32;33659;-81
2021/06/01 08:58:22;;;;;;;0.98;0.50;;;;;;;19.23;34.98;100001.03;4430099;32;36641;-83
2021/06/01 09:00:53;;;;;;;0.47;0.28;;;;;;;20.12;41.39;100006.47;4417613;32;34022;-80
2021/06/01 09:03:23;;;;;;;0.22;0.22;;;;;;;20.26;36.18;100000.09;4430081;32;32749;-81
2021/06/01 09:23:05;;;;;;;0.28;0.28;;;;;;;20.79;34.68;99991.97;4444579;32;34115;-80
2021/06/01 09:28:09;;;;;;;0.40;0.35;;;;;;;21.57;33.15;99982.06;4444146;32;33936;-80
2021/06/01 09:30:40;;;;;;;0.35;0.35;;;;;;;21.61;36.08;99988.72;4443948;32;35018;-81
2021/06/01 09:33:27;;;;;;;0.25;0.25;;;;;;;22.14;33.56;99981.34;4416014;32;34081;-80
2021/06/01 09:35:59;;;;;;;1.77;0.52;;;;;;;22.48;35.43;99981.84;4429857;32;33464;-80
2021/06/01 09:38:36;;;;;;;0.47;0.40;;;;;;;22.92;34.91;99986.44;4430349;32;34416;-80
2021/06/01 09:41:10;;;;;;;0.60;0.47;;;;;;;23.01;30.45;99991.34;4416556;32;36513;-81
2021/06/01 09:43:55;;;;;;;0.47;0.47;;;;;;;23.25;31.56;99977.03;4429937;32;34611;-82
2021/06/01 09:46:38;;;;;;;0.70;0.43;;;;;;;22.82;32.53;99972.50;4417353;32;33958;-81
2021/06/01 09:49:12;;;;;;;0.70;0.35;;;;;;;22.82;31.25;99973.31;4429772;32;34550;-82
2021/06/01 09:51:50;;;;;;;1.37;1.27;;;;;;;22.65;35.26;99977.59;4430041;32;34540;-83
2021/06/01 09:54:29;;;;;;;1.12;0.40;;;;;;;22.49;34.73;99979.97;4415502;32;34254;-82
2021/06/01 09:56:59;;;;;;;0.57;0.50;;;;;;;22.57;35.94;99975.12;4429445;32;32429;-83
2021/06/01 09:59:27;;;;;;;0.35;0.35;;;;;;;22.45;36.07;99973.34;4429041;32;34534;-83
2021/06/01 10:01:55;;;;;;;0.37;0.37;;;;;;;22.22;35.27;99975.69;4429779;32;34849;-81
2021/06/01 10:04:28;;;;;;;0.55;0.55;;;;;;;22.12;36.60;99976.16;4404258;32;32776;-82
2021/06/01 10:06:55;;;;;;;14.32;1.55;;;;;;;22.05;35.90;99977.19;4417435;32;33483;-84
2021/06/01 10:09:24;;;;;;;0.60;0.57;;;;;;;21.65;36.75;99983.75;4390256;32;32565;-82
2021/06/01 10:11:52;;;;;;;;;;;;;;;21.74;37.09;99974.38;4415059;32;34783;-82
2021/06/01 10:14:22;;;;;;;2.60;1.05;;;;;;;21.79;37.47;99971.84;4416514;32;34645;-82
2021/06/01 10:16:50;;;;;;;0.68;0.40;;;;;;;21.52;38.27;99983.75;4415925;32;33237;-81
2021/06/01 10:19:19;;;;;;;0.68;0.55;;;;;;;21.66;38.08;99988.97;4429530;32;32271;-83
2021/06/01 10:21:53;;;;;;;1.02;1.02;;;;;;;21.59;37.80;99982.69;4414327;32;34285;-82
2021/06/01 10:24:22;;;;;;;0.45;0.45;;;;;;;21.35;38.87;99980.63;4417158;32;33261;-82
2021/06/01 10:26:56;;;;;;;0.50;0.40;;;;;;;21.55;38.76;99981.44;4417649;32;33273;-82
2021/06/01 10:29:25;;;;;;;0.68;0.40;;;;;;;21.34;38.99;99983.53;4430345;32;33497;-81
2021/06/01 10:31:52;;;;;;;0.62;0.60;;;;;;;21.34;38.25;99986.25;4428612;32;34960;-83
2021/06/01 10:34:22;;;;;;;1.15;0.82;;;;;;;21.50;38.89;99989.38;4429103;32;35545;-82
2021/06/01 10:50:45;;;;;;;0.88;0.80;;;;;;;21.18;38.33;99984.75;4415379;32;34170;-81
2021/06/01 10:53:19;;;;;;;1.25;0.65;;;;;;;21.36;38.04;99990.38;4427146;32;35868;-82
2021/06/01 10:58:44;;;;;;;3.50;0.73;;;;;;;21.57;38.00;99989.34;4440994;32;34782;-81
2021/06/01 11:04:07;;;;;;;;;;;;;;;21.72;38.39;99982.69;4441871;32;34783;-82
2021/06/01 11:06:52;;;;;;;5.78;1.15;;;;;;;21.61;38.77;99980.59;4427978;32;33191;-80
2021/06/01 11:09:42;;;;;;;0.30;0.28;;;;;;;21.69;37.78;99982.28;4427745;32;34929;-81
2021/06/01 11:12:13;;;;;;;0.57;0.57;;;;;;;21.77;38.07;99980.19;4432361;32;32861;-83
2021/06/01 11:14:42;;;;;;;0.88;0.85;;;;;;;21.83;37.04;99973.09;4415688;32;33833;-80
2021/06/01 11:17:11;;;;;;;0.45;0.43;;;;;;;21.57;36.03;99984.78;4442992;32;34168;-80
2021/06/01 11:19:58;;;;;;;0.30;0.30;;;;;;;21.73;35.12;99975.41;4428529;32;33260;-81
2021/06/01 11:33:45;;;;;;;3.92;1.90;;;;;;;22.46;34.27;99967.69;4429289;32;33820;-81
2021/06/01 11:36:18;;;;;;;0.52;0.25;;;;;;;22.48;34.51;99956.63;4416775;32;36051;-80
2021/06/01 11:39:00;;;;;;;0.62;0.62;;;;;;;22.56;34.22;99962.63;4418086;32;34202;-81
2021/06/01 11:44:29;;;;;;;0.37;0.37;;;;;;;22.20;33.44;99956.09;4376152;32;33943;-80
2021/06/01 11:47:17;;;;;;;0.85;0.70;;;;;;;22.89;33.22;99965.13;4382283;32;35058;-80
2021/06/01 11:52:32;;;;;;;1.23;0.70;;;;;;;24.11;32.39;99960.50;4381794;32;32766;-81
2021/06/01 11:55:05;;;;;;;0.90;0.75;;;;;;;24.06;32.11;99956.81;4365278;32;35666;-80
2021/06/01 12:02:02;;;;;;;0.62;0.60;;;;;;;23.95;32.10;99957.56;4358995;32;34775;-81
2021/06/01 12:03:22;;;;;;;0.70;0.47;;;;;;;23.57;31.85;99956.88;4368437;32;32610;-80
2021/06/01 12:12:03;;;;;;;0.85;0.82;;;;;;;23.62;34.40;99959.78;4325437;33;34185;-80
2021/06/01 12:17:50;;;;;;;0.40;0.40;;;;;;;23.36;34.06;99964.59;4336054;33;34176;-80
2021/06/01 12:20:18;;;;;;;0.30;0.30;;;;;;;23.13;33.76;99964.34;4338396;32;34745;-79
2021/06/01 12:22:55;;;;;;;1.08;0.35;;;;;;;23.38;33.53;99966.03;4366117;32;34114;-81
2021/06/01 12:25:23;;;;;;;0.20;0.20;;;;;;;22.64;33.46;99964.28;4353853;32;33918;-80
2021/06/01 12:28:09;;;;;;;0.50;0.50;;;;;;;22.87;33.72;99968.09;4353336;32;32994;-79
2021/06/01 12:30:59;;;;;;;0.62;0.62;;;;;;;23.07;33.47;99959.78;4365595;32;34530;-80
2021/06/01 12:33:27;;;;;;;0.60;0.35;;;;;;;23.16;34.52;99962.06;4360722;32;34479;-80
2021/06/01 12:44:41;;;;;;;0.57;0.55;;;;;;;23.37;35.65;99961.66;4339904;32;33689;-79
2021/06/01 13:12:24;;;;;;;0.43;0.40;;;;;;;23.80;32.41;99936.16;4739758;26;34288;-79
2021/06/01 13:21:03;;;;;;;0.52;0.52;;;;;;;24.11;30.83;99927.06;4367630;32;33892;-80
2021/06/01 13:24:03;;;;;;;1.95;1.17;;;;;;;24.38;32.20;99928.38;4355364;32;33835;-82
2021/06/01 13:45:59;;;;;;;0.68;0.68;;;;;;;25.45;27.07;99915.44;4379405;32;33682;-80
2021/06/01 13:56:25;;;;;;;1.48;0.73;;;;;;;25.16;28.22;99908.16;4367422;32;33850;-78
2021/06/01 15:47:49;;;;;;;;;;;;;;;23.92;30.26;99906.38;4353263;32;33351;-78
2021/06/01 16:12:37;;;;;;;1.10;1.05;;;;;;;23.67;31.43;99905.59;4359926;32;34563;-77
2021/06/01 16:15:22;;;;;;;;;;;;;;;23.49;30.84;99902.84;4375375;32;34116;-77
2021/06/01 16:23:31;;;;;;;1.00;0.32;;;;;;;23.29;30.51;99913.06;4417523;32;34616;-77
2021/06/01 17:04:48;;;;;;;1.23;0.50;;;;;;;22.94;32.41;99913.78;4398108;32;35542;-79
2021/06/01 17:11:37;;;;;;;0.25;0.20;;;;;;;22.87;33.15;99911.13;4432217;32;32996;-78
2021/06/01 17:38:45;;;;;;;0.65;0.65;;;;;;;22.76;33.68;99921.84;4313060;33;34844;-79
2021/06/01 17:41:58;;;;;;;0.85;0.50;;;;;;;22.73;34.18;99925.00;4310763;33;32089;-79